Time;durP1;ratioP1;P1;durP2;ratioP2;P2;SDS_P1;SDS_P2;PMS_P1;PMS_P2;Temp;Humidity;BMP_temperature;BMP_pressure;BME280_temperature;BME280_humidity;BME280_pressure;Samples;Min_cycle;Max_cycle;Signal;HPM_P1;HPM_P2
2023/11/02 00:01:37;;;;;;;0.90;0.30;;;;;;;10.93;100.00;100022.56;5082926;28;20028;-68
2023/11/02 00:04:03;;;;;;;1.80;0.22;;;;;;;10.86;100.00;100019.00;5084958;28;20058;-68
2023/11/02 00:06:36;;;;;;;1.25;0.30;;;;;;;10.80;100.00;100014.41;5085378;28;20024;-67
2023/11/02 00:09:10;;;;;;;1.00;0.30;;;;;;;10.81;100.00;100010.81;5085533;28;20035;-68
2023/11/02 00:11:55;;;;;;;0.88;0.30;;;;;;;10.75;100.00;100008.03;5085617;28;20450;-68
2023/11/02 00:14:23;;;;;;;1.20;0.25;;;;;;;10.69;100.00;100009.47;5087968;28;20057;-67
2023/11/02 00:16:49;;;;;;;2.88;0.40;;;;;;;10.75;100.00;100006.22;5083918;28;20039;-68
2023/11/02 00:19:37;;;;;;;1.98;0.40;;;;;;;10.81;100.00;100007.41;5091187;28;20031;-67
2023/11/02 00:22:10;;;;;;;3.60;0.30;;;;;;;10.87;100.00;100004.16;5092173;28;20042;-68
2023/11/02 00:24:47;;;;;;;3.65;0.35;;;;;;;10.79;100.00;99986.72;5086408;28;20475;-67
2023/11/02 00:27:13;;;;;;;1.48;0.30;;;;;;;10.71;100.00;99984.06;5081100;28;20480;-68
2023/11/02 00:29:38;;;;;;;1.70;0.47;;;;;;;10.64;100.00;99983.88;5086668;28;20035;-68
2023/11/02 00:32:05;;;;;;;2.90;0.30;;;;;;;10.57;100.00;99985.47;5086598;28;20028;-68
2023/11/02 00:34:31;;;;;;;1.55;0.40;;;;;;;10.52;100.00;99973.88;5084592;28;20391;-68
2023/11/02 00:36:58;;;;;;;1.63;0.20;;;;;;;10.46;100.00;99985.72;5087264;28;21083;-68
2023/11/02 00:39:24;;;;;;;1.30;0.28;;;;;;;10.44;100.00;99976.44;5086302;28;20059;-68
2023/11/02 00:41:50;;;;;;;1.20;0.20;;;;;;;10.45;100.00;99975.47;5086987;28;20472;-67
2023/11/02 00:44:17;;;;;;;2.38;0.20;;;;;;;10.46;100.00;99966.69;5088054;28;20041;-68
2023/11/02 00:46:44;;;;;;;2.30;0.63;;;;;;;10.51;100.00;99970.47;5087208;28;20482;-68
2023/11/02 00:49:18;;;;;;;1.50;0.47;;;;;;;10.64;100.00;99975.25;5085735;28;20032;-68
2023/11/02 00:51:49;;;;;;;4.82;0.40;;;;;;;10.73;100.00;99965.66;5083661;28;20028;-68
2023/11/02 00:54:53;;;;;;;1.90;0.30;;;;;;;10.75;100.00;99961.94;5084891;28;20024;-68
2023/11/02 00:57:22;;;;;;;0.88;0.10;;;;;;;10.83;100.00;99967.19;5081500;28;20036;-68
2023/11/02 00:59:48;;;;;;;1.58;0.10;;;;;;;10.89;100.00;99957.88;5086310;28;20043;-68
2023/11/02 01:02:14;;;;;;;1.45;0.20;;;;;;;10.91;100.00;99946.31;5082935;28;20032;-68
2023/11/02 01:04:43;;;;;;;2.80;0.10;;;;;;;10.93;100.00;99946.97;5085764;28;20036;-68
2023/11/02 01:07:10;;;;;;;1.13;0.20;;;;;;;10.91;100.00;99937.69;5086477;28;20380;-68
2023/11/02 01:09:38;;;;;;;0.32;0.10;;;;;;;10.93;100.00;99944.38;5083233;28;20032;-68
2023/11/02 01:12:08;;;;;;;2.78;0.10;;;;;;;10.94;100.00;99932.97;5084577;28;20171;-67
2023/11/02 01:14:45;;;;;;;1.50;0.25;;;;;;;10.85;100.00;99931.34;5084136;28;20028;-68
2023/11/02 01:17:27;;;;;;;0.35;0.10;;;;;;;10.76;100.00;99937.50;5086675;28;20043;-68
2023/11/02 01:19:55;;;;;;;0.85;0.10;;;;;;;10.67;100.00;99930.63;5089258;28;20487;-68
2023/11/02 01:22:42;;;;;;;2.70;0.10;;;;;;;10.57;100.00;99922.94;5087271;28;20059;-68
2023/11/02 01:25:12;;;;;;;0.52;0.15;;;;;;;10.52;100.00;99930.41;5085828;28;20032;-68
2023/11/02 01:27:38;;;;;;;0.93;0.10;;;;;;;10.48;100.00;99923.06;5086826;28;20028;-68
2023/11/02 01:30:27;;;;;;;0.60;0.10;;;;;;;10.42;100.00;99934.09;5090656;28;20040;-68
2023/11/02 01:32:54;;;;;;;1.55;0.10;;;;;;;10.48;100.00;99925.66;5091535;28;20085;-68
2023/11/02 01:35:43;;;;;;;0.50;0.10;;;;;;;10.52;100.00;99919.19;5089603;28;20035;-68
2023/11/02 01:38:13;;;;;;;1.45;0.20;;;;;;;10.57;100.00;99917.75;5075271;28;20040;-68
2023/11/02 01:40:55;;;;;;;0.52;0.10;;;;;;;10.59;100.00;99914.97;5088687;28;20028;-68
2023/11/02 01:43:39;;;;;;;1.77;0.20;;;;;;;10.65;100.00;99914.34;5081041;28;20028;-68
2023/11/02 01:46:12;;;;;;;1.88;0.20;;;;;;;10.61;100.00;99913.03;5087870;28;20119;-68
2023/11/02 01:49:06;;;;;;;0.88;0.10;;;;;;;10.71;100.00;99913.72;5089665;28;20030;-67
2023/11/02 01:51:35;;;;;;;0.75;0.30;;;;;;;10.80;100.00;99920.59;5087535;28;20062;-68
2023/11/02 01:54:24;;;;;;;0.60;0.10;;;;;;;10.83;100.00;99919.47;5089113;28;20036;-68
2023/11/02 01:57:03;;;;;;;1.13;0.20;;;;;;;10.86;100.00;99922.56;5090519;28;20039;-68
2023/11/02 01:59:50;;;;;;;1.33;0.10;;;;;;;10.88;100.00;99920.59;5089399;28;20077;-68
2023/11/02 02:02:34;;;;;;;1.95;0.20;;;;;;;10.90;100.00;99921.25;5083772;28;20028;-68
2023/11/02 02:05:08;;;;;;;0.70;0.20;;;;;;;10.91;100.00;99919.44;5085380;28;20039;-68
2023/11/02 02:07:46;;;;;;;0.40;0.20;;;;;;;10.87;100.00;99910.34;5087391;28;20040;-67
2023/11/02 02:10:15;;;;;;;0.85;0.20;;;;;;;10.86;100.00;99906.09;5091540;28;20020;-67
2023/11/02 02:12:50;;;;;;;5.07;0.32;;;;;;;10.84;100.00;99902.84;5086808;28;20418;-67
2023/11/02 02:15:37;;;;;;;0.43;0.10;;;;;;;10.86;100.00;99896.50;5088179;28;20074;-67
2023/11/02 02:18:12;;;;;;;1.05;0.17;;;;;;;10.89;100.00;99890.94;5090074;28;20362;-68
2023/11/02 02:20:40;;;;;;;0.85;0.10;;;;;;;10.98;100.00;99904.81;5086494;28;20044;-68
2023/11/02 02:23:13;;;;;;;0.95;0.20;;;;;;;11.05;100.00;99899.75;5095830;28;20062;-68
2023/11/02 02:26:17;;;;;;;0.40;0.20;;;;;;;11.01;100.00;99899.28;5094187;28;20028;-67
2023/11/02 02:29:33;;;;;;;0.85;0.10;;;;;;;11.02;100.00;99900.09;5068768;28;20159;-67
2023/11/02 02:32:43;;;;;;;2.13;0.20;;;;;;;11.02;100.00;99892.28;5004480;28;20111;-67
2023/11/02 02:35:26;;;;;;;1.75;0.20;;;;;;;11.01;100.00;99881.03;4987759;28;20042;-67
2023/11/02 02:38:06;;;;;;;1.00;0.10;;;;;;;11.01;100.00;99882.81;4997346;28;20037;-66
2023/11/02 02:40:34;;;;;;;0.47;0.15;;;;;;;10.98;100.00;99874.34;5000623;28;20053;-67
2023/11/02 02:43:02;;;;;;;1.85;0.20;;;;;;;10.95;100.00;99877.25;5003593;28;20038;-67
2023/11/02 02:45:31;;;;;;;0.85;0.20;;;;;;;10.96;100.00;99865.88;4996737;28;20061;-67
2023/11/02 02:48:00;;;;;;;1.40;0.20;;;;;;;11.00;100.00;99881.19;5003804;28;20037;-67
2023/11/02 02:50:31;;;;;;;3.17;0.20;;;;;;;11.00;100.00;99868.16;5000416;28;20381;-68
2023/11/02 02:53:00;;;;;;;0.95;0.88;;;;;;;10.99;100.00;99872.56;4998579;28;20045;-68
2023/11/02 02:55:28;;;;;;;1.65;0.20;;;;;;;11.00;100.00;99868.16;5002541;28;20159;-67
2023/11/02 02:57:57;;;;;;;1.05;0.20;;;;;;;11.03;100.00;99867.81;4987732;28;20148;-68
2023/11/02 03:00:25;;;;;;;1.30;0.40;;;;;;;11.03;100.00;99853.00;4996583;28;20054;-67
2023/11/02 03:02:53;;;;;;;1.42;0.20;;;;;;;11.05;100.00;99848.44;5000594;28;20515;-68
2023/11/02 03:05:22;;;;;;;2.00;0.30;;;;;;;11.04;100.00;99848.59;5016643;28;20052;-68
2023/11/02 03:07:48;;;;;;;1.30;0.20;;;;;;;11.01;100.00;99846.31;5085771;28;20024;-67
2023/11/02 03:10:15;;;;;;;4.22;0.20;;;;;;;11.00;100.00;99847.31;5088741;28;20059;-67
2023/11/02 03:12:42;;;;;;;2.47;0.30;;;;;;;11.03;100.00;99846.97;5085866;28;20046;-67
2023/11/02 03:15:09;;;;;;;0.70;0.28;;;;;;;11.04;100.00;99852.03;5089327;28;20036;-68
2023/11/02 03:17:59;;;;;;;3.15;0.40;;;;;;;11.04;100.00;99857.25;5087626;28;20548;-68
2023/11/02 03:20:26;;;;;;;9.82;0.40;;;;;;;11.02;100.00;99853.16;5084800;28;20052;-68
2023/11/02 03:22:52;;;;;;;3.83;0.40;;;;;;;11.03;100.00;99849.59;5085655;28;20099;-67
2023/11/02 03:25:17;;;;;;;2.05;0.38;;;;;;;11.08;100.00;99847.31;5089969;28;20100;-67
2023/11/02 03:28:04;;;;;;;1.27;0.30;;;;;;;11.09;100.00;99844.53;5088876;28;20047;-67
2023/11/02 03:30:39;;;;;;;2.33;0.40;;;;;;;11.03;100.00;99844.38;5086766;28;20050;-68
2023/11/02 03:33:23;;;;;;;2.20;0.45;;;;;;;10.97;100.00;99846.66;5087999;28;20129;-68
2023/11/02 03:36:12;;;;;;;7.15;0.47;;;;;;;10.95;100.00;99832.13;5088412;28;20063;-69
2023/11/02 03:38:40;;;;;;;1.80;0.25;;;;;;;10.94;100.00;99836.53;5087535;28;20039;-69
2023/11/02 03:41:22;;;;;;;1.65;0.40;;;;;;;10.91;100.00;99828.22;5086211;28;20028;-68
2023/11/02 03:44:02;;;;;;;3.08;0.28;;;;;;;10.89;100.00;99820.56;5088223;28;20107;-69
2023/11/02 03:46:47;;;;;;;2.08;0.38;;;;;;;10.87;100.00;99819.91;5081560;28;20550;-69
2023/11/02 03:49:24;;;;;;;0.63;0.22;;;;;;;10.89;100.00;99814.53;5085840;28;20024;-69
2023/11/02 03:52:04;;;;;;;0.80;0.20;;;;;;;10.89;100.00;99817.97;5086368;28;20031;-69
2023/11/02 03:54:57;;;;;;;1.27;0.20;;;;;;;10.94;100.00;99815.69;5087593;28;20115;-70
2023/11/02 03:57:30;;;;;;;2.03;0.20;;;;;;;11.00;100.00;99819.44;5084599;28;20492;-69
2023/11/02 04:00:10;;;;;;;1.23;0.20;;;;;;;11.05;100.00;99813.75;5088133;28;20024;-69
2023/11/02 04:02:59;;;;;;;1.35;0.20;;;;;;;11.04;100.00;99812.13;5084094;28;20051;-69
2023/11/02 04:05:29;;;;;;;2.95;0.30;;;;;;;11.07;100.00;99803.97;5087412;28;20031;-69
2023/11/02 04:08:17;;;;;;;4.82;0.47;;;;;;;11.08;100.00;99810.81;5086228;28;20100;-69
2023/11/02 04:10:55;;;;;;;0.80;0.20;;;;;;;11.10;100.00;99814.06;5084752;28;20024;-69
2023/11/02 04:13:34;;;;;;;1.75;0.20;;;;;;;11.10;100.00;99801.03;5087190;28;20035;-69
2023/11/02 04:15:59;;;;;;;1.40;0.13;;;;;;;11.10;100.00;99798.44;5086115;28;20593;-68
2023/11/02 04:18:25;;;;;;;1.30;0.10;;;;;;;11.13;100.00;99793.69;5088056;28;20055;-69
2023/11/02 04:20:52;;;;;;;0.60;0.10;;;;;;;11.15;100.00;99786.53;5081543;28;20040;-68
2023/11/02 04:23:22;;;;;;;0.50;0.10;;;;;;;11.15;100.00;99773.50;5088544;28;20036;-69
2023/11/02 04:25:50;;;;;;;2.15;0.95;;;;;;;11.15;100.00;99770.88;5085986;28;20089;-69
2023/11/02 04:28:16;;;;;;;0.73;0.32;;;;;;;11.15;100.00;99751.81;5086477;28;20038;-69
2023/11/02 04:30:42;;;;;;;0.63;0.20;;;;;;;11.13;100.00;99748.56;5084481;28;20020;-69
2023/11/02 04:33:08;;;;;;;3.10;0.20;;;;;;;11.11;100.00;99745.31;5088058;28;20044;-69
2023/11/02 04:35:34;;;;;;;1.65;0.17;;;;;;;11.12;100.00;99747.75;5084914;28;20136;-69
2023/11/02 04:38:07;;;;;;;2.83;0.30;;;;;;;11.10;100.00;99746.28;5086820;28;20119;-69
2023/11/02 04:40:34;;;;;;;1.65;0.13;;;;;;;11.10;100.00;99743.69;5084913;28;20060;-69
2023/11/02 04:43:00;;;;;;;1.30;0.10;;;;;;;11.10;100.00;99756.72;5088459;28;20498;-69
2023/11/02 04:45:27;;;;;;;0.52;0.10;;;;;;;11.08;100.00;99743.03;5092359;28;20032;-69
2023/11/02 04:47:52;;;;;;;2.22;0.20;;;;;;;11.11;100.00;99747.91;5084024;28;20751;-69
2023/11/02 04:50:20;;;;;;;0.85;0.20;;;;;;;11.17;100.00;99742.03;5081625;28;20048;-69
2023/11/02 04:52:45;;;;;;;1.90;0.10;;;;;;;11.16;100.00;99733.41;5080947;28;20508;-69
2023/11/02 04:55:12;;;;;;;1.77;0.15;;;;;;;11.21;100.00;99722.47;5082237;28;20040;-69
2023/11/02 04:57:37;;;;;;;2.50;0.28;;;;;;;11.18;100.00;99736.66;5096423;28;20039;-69
2023/11/02 05:00:04;;;;;;;2.70;0.10;;;;;;;11.17;100.00;99736.84;5081250;28;20035;-68
2023/11/02 05:02:30;;;;;;;0.75;0.20;;;;;;;11.18;100.00;99738.47;5083777;28;20484;-68
2023/11/02 05:04:55;;;;;;;1.17;0.20;;;;;;;11.15;100.00;99733.56;5086001;28;20027;-69
2023/11/02 05:07:21;;;;;;;2.63;0.13;;;;;;;11.15;100.00;99733.56;5085429;28;20054;-69
2023/11/02 05:09:46;;;;;;;0.90;0.20;;;;;;;11.07;100.00;99725.75;5085164;28;20024;-70
2023/11/02 05:12:12;;;;;;;2.40;0.55;;;;;;;11.05;100.00;99732.94;5086305;28;20368;-70
2023/11/02 05:14:37;;;;;;;1.75;0.22;;;;;;;11.04;100.00;99731.31;5084683;28;20115;-69
2023/11/02 05:17:03;;;;;;;1.95;0.40;;;;;;;11.04;100.00;99732.13;5092157;28;20502;-69
2023/11/02 05:19:28;;;;;;;2.05;0.25;;;;;;;11.05;100.00;99722.50;5084279;28;20047;-69
2023/11/02 05:21:53;;;;;;;1.67;0.20;;;;;;;11.02;100.00;99709.81;5085371;28;20106;-68
2023/11/02 05:24:19;;;;;;;5.97;0.40;;;;;;;11.03;100.00;99701.00;5084823;28;20071;-69
2023/11/02 05:26:44;;;;;;;2.50;0.22;;;;;;;11.06;100.00;99708.50;5084962;28;20043;-68
2023/11/02 05:29:09;;;;;;;4.20;0.55;;;;;;;11.10;100.00;99726.25;5089457;28;20040;-69
2023/11/02 05:31:37;;;;;;;1.85;0.20;;;;;;;11.11;100.00;99716.63;5088399;28;20024;-68
2023/11/02 05:34:03;;;;;;;1.95;0.43;;;;;;;11.13;100.00;99727.72;5088765;28;20071;-68
2023/11/02 05:36:28;;;;;;;4.30;0.35;;;;;;;11.12;100.00;99728.69;5086380;28;20052;-69
2023/11/02 05:38:54;;;;;;;3.35;0.35;;;;;;;11.13;100.00;99722.50;5085497;28;20073;-69
2023/11/02 05:41:22;;;;;;;1.63;0.32;;;;;;;11.12;100.00;99705.22;5089450;28;20490;-69
2023/11/02 05:43:48;;;;;;;2.50;0.20;;;;;;;11.13;100.00;99699.84;5083770;28;20048;-68
2023/11/02 05:46:13;;;;;;;1.33;0.30;;;;;;;11.09;100.00;99693.34;5090467;28;20313;-69
2023/11/02 05:48:39;;;;;;;3.55;0.30;;;;;;;11.08;100.00;99696.09;5088702;28;20035;-69
2023/11/02 05:51:04;;;;;;;1.50;0.32;;;;;;;11.08;100.00;99690.91;5090739;28;20063;-68
2023/11/02 05:53:30;;;;;;;1.48;0.30;;;;;;;11.09;100.00;99688.13;5088498;28;20034;-69
2023/11/02 05:55:55;;;;;;;5.10;0.73;;;;;;;11.11;100.00;99680.13;5089694;28;20024;-68
2023/11/02 05:58:21;;;;;;;2.60;0.73;;;;;;;11.12;100.00;99685.19;5086412;28;20039;-69
2023/11/02 06:00:47;;;;;;;4.38;0.68;;;;;;;11.13;100.00;99686.00;5087726;28;20139;-69
2023/11/02 06:03:13;;;;;;;5.50;0.40;;;;;;;11.13;100.00;99686.81;5087750;28;20077;-68
2023/11/02 06:05:38;;;;;;;1.75;0.30;;;;;;;11.18;100.00;99691.53;5090472;28;20028;-68
2023/11/02 06:08:03;;;;;;;3.17;0.30;;;;;;;11.22;100.00;99685.00;5088911;28;20034;-68
2023/11/02 06:10:29;;;;;;;1.80;0.20;;;;;;;11.28;100.00;99698.19;5089069;28;20020;-68
2023/11/02 06:12:54;;;;;;;2.90;0.50;;;;;;;11.33;100.00;99702.91;5088515;28;20039;-69
2023/11/02 06:15:22;;;;;;;4.97;0.20;;;;;;;11.37;100.00;99696.34;5091271;28;20039;-68
2023/11/02 06:17:47;;;;;;;2.83;0.28;;;;;;;11.36;100.00;99684.28;5089911;28;20066;-68
2023/11/02 06:20:13;;;;;;;4.25;0.40;;;;;;;11.36;100.00;99692.09;5087836;28;20175;-68
2023/11/02 06:22:40;;;;;;;3.47;0.40;;;;;;;11.36;100.00;99697.31;5083580;28;20040;-68
2023/11/02 06:25:06;;;;;;;4.90;0.52;;;;;;;11.38;100.00;99697.97;5088824;28;20471;-68
2023/11/02 06:27:31;;;;;;;2.03;0.73;;;;;;;11.39;100.00;99694.38;5086934;28;20028;-68
2023/11/02 06:29:57;;;;;;;2.42;0.50;;;;;;;11.40;100.00;99696.00;5089268;28;20567;-68
2023/11/02 06:32:22;;;;;;;1.40;0.30;;;;;;;11.39;100.00;99696.16;5090446;28;20063;-69
2023/11/02 06:34:48;;;;;;;1.85;0.30;;;;;;;11.38;100.00;99692.75;5088536;28;20032;-68
2023/11/02 06:37:18;;;;;;;1.98;0.30;;;;;;;11.42;100.00;99673.19;5085225;28;20031;-68
2023/11/02 06:39:44;;;;;;;3.92;0.40;;;;;;;11.42;100.00;99672.38;5088821;28;20028;-68
2023/11/02 06:42:09;;;;;;;3.30;0.35;;;;;;;11.41;100.00;99671.56;5089795;28;20077;-68
2023/11/02 06:44:39;;;;;;;1.25;0.30;;;;;;;11.40;100.00;99671.72;5088026;28;20063;-68
2023/11/02 06:47:05;;;;;;;3.05;0.30;;;;;;;11.41;100.00;99691.59;5085371;28;20032;-68
2023/11/02 06:49:30;;;;;;;6.10;0.52;;;;;;;11.43;100.00;99695.66;5082575;28;20056;-68
2023/11/02 06:51:56;;;;;;;3.22;0.30;;;;;;;11.44;100.00;99704.31;5089596;28;20016;-67
2023/11/02 06:54:22;;;;;;;1.98;0.47;;;;;;;11.44;100.00;99707.72;5088622;28;20041;-66
2023/11/02 06:56:47;;;;;;;1.10;0.30;;;;;;;11.38;100.00;99699.75;5087844;28;20038;-66
2023/11/02 06:59:13;;;;;;;1.75;0.50;;;;;;;11.31;100.00;99697.03;5090393;28;20123;-67
2023/11/02 07:01:38;;;;;;;1.35;0.30;;;;;;;11.18;100.00;99649.81;5088430;28;20028;-66
2023/11/02 07:04:04;;;;;;;4.28;0.30;;;;;;;11.09;100.00;99653.41;5089086;28;20497;-66
2023/11/02 07:06:30;;;;;;;3.13;0.50;;;;;;;11.06;100.00;99657.16;5084043;28;20028;-66
2023/11/02 07:08:55;;;;;;;2.78;0.47;;;;;;;11.08;100.00;99651.78;5089749;28;20051;-67
2023/11/02 07:11:21;;;;;;;2.50;0.30;;;;;;;11.05;100.00;99652.94;5088148;28;20023;-67
2023/11/02 07:13:47;;;;;;;2.38;0.70;;;;;;;11.06;100.00;99664.19;5089103;28;20028;-66
2023/11/02 07:16:12;;;;;;;2.60;0.52;;;;;;;11.07;100.00;99656.19;5085719;28;20387;-66
2023/11/02 07:18:38;;;;;;;5.97;1.00;;;;;;;11.06;100.00;99653.75;5086935;28;20391;-66
2023/11/02 07:21:04;;;;;;;3.00;0.40;;;;;;;11.06;100.00;99656.34;5086761;28;20093;-65
2023/11/02 07:23:29;;;;;;;1.45;0.30;;;;;;;11.06;100.00;99651.16;5085817;28;20081;-65
2023/11/02 07:25:54;;;;;;;0.93;0.20;;;;;;;11.06;100.00;99630.28;5087406;28;20476;-66
2023/11/02 07:28:20;;;;;;;4.05;0.40;;;;;;;11.08;100.00;99630.94;5087832;28;20047;-66
2023/11/02 07:30:45;;;;;;;3.75;0.40;;;;;;;11.12;100.00;99640.06;5088489;28;20546;-66
2023/11/02 07:33:11;;;;;;;2.25;0.43;;;;;;;11.11;100.00;99638.44;5089919;28;20043;-65
2023/11/02 07:35:36;;;;;;;3.17;0.43;;;;;;;11.08;100.00;99623.13;5090135;28;20483;-66
2023/11/02 07:38:01;;;;;;;3.90;0.63;;;;;;;11.08;100.00;99623.13;5089853;28;20032;-66
2023/11/02 07:40:29;;;;;;;3.65;0.57;;;;;;;11.13;100.00;99599.97;5087282;28;20028;-66
2023/11/02 07:42:54;;;;;;;2.90;0.32;;;;;;;11.15;100.00;99593.59;5089267;28;20032;-65
2023/11/02 07:45:20;;;;;;;5.10;0.88;;;;;;;11.20;100.00;99613.97;5086440;28;20047;-65
2023/11/02 07:47:46;;;;;;;1.88;0.55;;;;;;;11.30;100.00;99604.13;5089376;28;20032;-65
2023/11/02 07:50:11;;;;;;;2.88;0.47;;;;;;;11.32;100.00;99617.81;5089073;28;20024;-66
2023/11/02 07:52:39;;;;;;;1.50;0.38;;;;;;;11.29;100.00;99654.66;5086365;28;20042;-66
2023/11/02 07:55:04;;;;;;;1.50;0.32;;;;;;;11.21;100.00;99639.84;5086193;28;20043;-66
2023/11/02 07:57:30;;;;;;;3.65;0.63;;;;;;;11.24;100.00;99621.28;5089853;28;20127;-67
2023/11/02 07:59:55;;;;;;;0.88;0.30;;;;;;;11.29;100.00;99602.50;5087802;28;20122;-66
2023/11/02 08:02:21;;;;;;;4.95;0.30;;;;;;;11.31;100.00;99603.16;5089192;28;20036;-67
2023/11/02 08:04:46;;;;;;;1.13;0.30;;;;;;;11.37;100.00;99609.47;5086909;28;20044;-66
2023/11/02 08:07:12;;;;;;;1.90;0.32;;;;;;;11.44;100.00;99602.59;5090455;28;20501;-66
2023/11/02 08:09:37;;;;;;;1.17;0.20;;;;;;;11.50;100.00;99592.28;5086977;28;20055;-66
2023/11/02 08:12:08;;;;;;;0.95;0.22;;;;;;;11.55;100.00;99584.75;5085666;28;20112;-66
2023/11/02 08:14:36;;;;;;;3.08;0.35;;;;;;;11.63;100.00;99584.72;5080315;28;20086;-67
2023/11/02 08:17:03;;;;;;;1.10;0.30;;;;;;;11.70;100.00;99581.41;5090514;28;20035;-66
2023/11/02 08:19:29;;;;;;;2.28;0.30;;;;;;;11.75;100.00;99576.50;5085070;28;20040;-67
2023/11/02 08:21:55;;;;;;;4.15;0.50;;;;;;;11.79;100.00;99570.78;5077590;28;20086;-69
2023/11/02 08:24:21;;;;;;;4.20;0.32;;;;;;;11.83;100.00;99566.00;5080269;28;20727;-67
2023/11/02 08:26:46;;;;;;;2.75;0.40;;;;;;;11.84;100.00;99558.00;5083979;28;20688;-68
2023/11/02 08:29:12;;;;;;;2.47;0.40;;;;;;;11.80;100.00;99550.72;5085601;28;20031;-67
2023/11/02 08:31:37;;;;;;;0.70;0.30;;;;;;;11.78;100.00;99548.28;5085963;28;20035;-67
2023/11/02 08:34:03;;;;;;;1.95;0.28;;;;;;;11.78;100.00;99542.25;5079620;28;20136;-66
2023/11/02 08:36:31;;;;;;;3.00;0.30;;;;;;;11.79;100.00;99549.09;5081854;28;20499;-66
2023/11/02 08:38:57;;;;;;;0.95;0.43;;;;;;;11.80;100.00;99532.47;5085627;28;20700;-67
2023/11/02 08:41:24;;;;;;;1.35;0.30;;;;;;;11.82;100.00;99536.47;5087736;28;20039;-67
2023/11/02 08:43:50;;;;;;;0.60;0.20;;;;;;;11.83;100.00;99529.47;5084656;28;21142;-66
2023/11/02 08:46:22;;;;;;;2.55;0.30;;;;;;;11.81;100.00;99532.28;5087743;28;20043;-67
2023/11/02 08:48:49;;;;;;;1.08;0.20;;;;;;;11.83;100.00;99535.50;5087412;28;20032;-66
2023/11/02 08:51:16;;;;;;;0.52;0.20;;;;;;;11.84;100.00;99520.66;5093052;28;20027;-66
2023/11/02 08:53:42;;;;;;;2.40;0.43;;;;;;;11.72;100.00;99522.03;5089807;28;20031;-66
2023/11/02 08:56:09;;;;;;;2.28;0.30;;;;;;;11.68;100.00;99513.75;5093166;28;20024;-67
2023/11/02 08:58:42;;;;;;;0.88;0.30;;;;;;;11.68;100.00;99512.94;5090705;28;20032;-67
2023/11/02 09:01:08;;;;;;;2.45;0.20;;;;;;;11.73;100.00;99505.41;5091039;28;20379;-67
2023/11/02 09:03:36;;;;;;;1.55;0.35;;;;;;;11.75;100.00;99506.03;5088733;28;20043;-67
2023/11/02 09:06:04;;;;;;;2.40;0.35;;;;;;;11.78;100.00;99508.34;5091926;28;20483;-67
2023/11/02 09:08:29;;;;;;;2.08;0.20;;;;;;;11.81;100.00;99500.16;5089966;28;20134;-67
2023/11/02 09:10:55;;;;;;;3.47;0.38;;;;;;;11.89;100.00;99507.88;5087703;28;20909;-67
2023/11/02 09:13:20;;;;;;;3.03;0.20;;;;;;;11.96;100.00;99503.59;5090560;28;20443;-67
2023/11/02 09:15:46;;;;;;;4.38;0.30;;;;;;;12.03;100.00;99499.28;5090513;28;20043;-67
2023/11/02 09:18:11;;;;;;;1.60;0.32;;;;;;;12.06;100.00;99493.72;5089434;28;20028;-67
2023/11/02 09:20:37;;;;;;;2.30;0.70;;;;;;;12.10;100.00;99484.53;5090375;28;20048;-66
2023/11/02 09:23:02;;;;;;;3.17;1.00;;;;;;;12.14;100.00;99472.75;5089959;28;20028;-65
2023/11/02 09:25:27;;;;;;;1.85;0.90;;;;;;;12.19;100.00;99473.03;5091864;28;20406;-66
2023/11/02 09:27:53;;;;;;;2.00;0.70;;;;;;;12.25;100.00;99466.28;5088718;28;20505;-65
2023/11/02 09:30:18;;;;;;;4.35;0.60;;;;;;;12.31;100.00;99462.94;5090366;28;20115;-66
2023/11/02 09:32:44;;;;;;;2.25;0.65;;;;;;;12.36;100.00;99459.78;5088593;28;20119;-65
2023/11/02 09:35:09;;;;;;;3.42;0.95;;;;;;;12.36;100.00;99454.56;5098790;28;20032;-66
2023/11/02 09:37:35;;;;;;;2.15;0.57;;;;;;;12.41;100.00;99452.22;5087104;28;20031;-66
2023/11/02 09:40:00;;;;;;;3.85;1.02;;;;;;;12.44;100.00;99441.41;5094638;28;20456;-66
2023/11/02 09:42:27;;;;;;;3.17;0.93;;;;;;;12.44;100.00;99436.19;5091364;28;20024;-66
2023/11/02 09:44:53;;;;;;;2.17;0.88;;;;;;;12.45;100.00;99425.56;5091891;28;20111;-66
2023/11/02 09:47:18;;;;;;;4.55;0.90;;;;;;;12.47;100.00;99417.53;5087131;28;20111;-66
2023/11/02 09:49:44;;;;;;;3.55;0.95;;;;;;;12.46;100.00;99416.72;5091321;28;20036;-66
2023/11/02 09:52:11;;;;;;;3.20;0.80;;;;;;;12.45;100.00;99411.69;5094585;28;20103;-66
2023/11/02 09:54:36;;;;;;;1.92;0.68;;;;;;;12.44;100.00;99402.22;5095165;28;20032;-66
2023/11/02 09:57:03;;;;;;;3.53;0.45;;;;;;;12.44;100.00;99397.00;5092715;28;20031;-66
2023/11/02 09:59:28;;;;;;;3.10;0.57;;;;;;;12.50;100.00;99396.28;5090687;28;20111;-65
2023/11/02 10:01:55;;;;;;;3.20;1.13;;;;;;;12.54;100.00;99356.53;5090684;28;20042;-67
2023/11/02 10:04:20;;;;;;;3.03;0.80;;;;;;;12.60;100.00;99375.91;5089197;28;20036;-66
2023/11/02 10:06:46;;;;;;;5.60;1.55;;;;;;;12.62;100.00;99361.66;5092760;27;20089;-65
2023/11/02 10:09:11;;;;;;;6.95;1.55;;;;;;;12.67;100.00;99348.03;5093309;28;20425;-66
2023/11/02 10:11:37;;;;;;;3.80;1.15;;;;;;;12.68;100.00;99356.69;5085834;28;20114;-66
2023/11/02 10:14:04;;;;;;;4.43;1.27;;;;;;;12.68;100.00;99356.69;5091006;28;20032;-66
2023/11/02 10:16:30;;;;;;;2.63;0.90;;;;;;;12.67;100.00;99365.53;5090896;28;20125;-66
2023/11/02 10:18:56;;;;;;;3.47;0.70;;;;;;;12.67;100.00;99357.69;5103617;28;20423;-66
2023/11/02 10:21:21;;;;;;;2.72;0.50;;;;;;;12.73;100.00;99343.88;5095758;28;20445;-66
2023/11/02 10:23:55;;;;;;;4.82;0.85;;;;;;;12.79;100.00;99327.44;5089986;28;20028;-66
2023/11/02 10:26:21;;;;;;;6.72;1.85;;;;;;;12.84;100.00;99314.59;5085152;28;20039;-66
2023/11/02 10:28:47;;;;;;;3.78;1.15;;;;;;;12.86;100.00;99323.06;5089591;28;20115;-66
2023/11/02 10:31:18;;;;;;;1.38;0.57;;;;;;;12.87;100.00;99299.38;5096282;28;20386;-65
2023/11/02 10:33:48;;;;;;;3.47;0.88;;;;;;;12.93;100.00;99297.81;5094223;28;20445;-67
2023/11/02 10:36:16;;;;;;;2.63;0.60;;;;;;;13.03;100.00;99287.03;5090555;28;20495;-66
2023/11/02 10:38:49;;;;;;;1.00;0.30;;;;;;;13.06;100.00;99271.78;5090609;28;20032;-66
2023/11/02 10:41:18;;;;;;;2.40;0.20;;;;;;;13.17;100.00;99270.50;5090856;28;20021;-65
2023/11/02 10:43:45;;;;;;;0.73;0.20;;;;;;;13.21;100.00;99263.88;5089601;28;20040;-65
2023/11/02 10:46:12;;;;;;;0.93;0.20;;;;;;;13.26;100.00;99269.31;5085351;28;20035;-66
2023/11/02 10:48:41;;;;;;;1.10;0.20;;;;;;;13.32;100.00;99249.44;5087961;28;20059;-66
2023/11/02 10:51:12;;;;;;;0.20;0.10;;;;;;;13.35;100.00;99244.63;5088489;28;20386;-66
2023/11/02 10:53:47;;;;;;;1.85;0.20;;;;;;;13.39;100.00;99232.00;5087202;28;20630;-66
2023/11/02 10:56:23;;;;;;;0.75;0.20;;;;;;;13.44;100.00;99232.22;5090110;28;20046;-67
2023/11/02 10:58:51;;;;;;;0.50;0.20;;;;;;;13.46;100.00;99236.25;5091892;28;20038;-67
2023/11/02 11:01:17;;;;;;;1.17;0.30;;;;;;;13.38;100.00;99225.94;5093866;28;20042;-66
2023/11/02 11:03:44;;;;;;;1.10;0.35;;;;;;;13.35;100.00;99217.69;5090726;28;20394;-67
2023/11/02 11:06:11;;;;;;;1.45;0.43;;;;;;;13.37;100.00;99206.03;5091198;28;20024;-67
2023/11/02 11:08:38;;;;;;;1.30;0.40;;;;;;;13.39;100.00;99197.97;5090402;28;20046;-67
2023/11/02 11:11:05;;;;;;;3.60;0.30;;;;;;;13.48;100.00;99191.59;5090646;28;20039;-67
2023/11/02 11:13:32;;;;;;;0.50;0.20;;;;;;;13.55;100.00;99190.63;5088191;28;20023;-67
2023/11/02 11:15:57;;;;;;;2.15;0.10;;;;;;;13.57;100.00;99190.44;5098257;28;20039;-66
2023/11/02 11:18:24;;;;;;;0.10;0.00;;;;;;;13.61;100.00;99187.22;5099283;28;20036;-66
2023/11/02 11:20:49;;;;;;;0.32;0.28;;;;;;;13.64;100.00;99185.22;5099656;28;20093;-66
2023/11/02 11:23:16;;;;;;;0.82;0.20;;;;;;;13.59;100.00;99183.19;5089552;28;20145;-66
2023/11/02 11:26:02;;;;;;;0.45;0.00;;;;;;;13.60;100.00;99180.38;5088158;28;20035;-66
2023/11/02 11:28:33;;;;;;;0.80;0.10;;;;;;;13.62;100.00;99177.56;5086014;28;20023;-66
2023/11/02 11:30:59;;;;;;;0.20;0.10;;;;;;;13.61;100.00;99161.06;5086013;28;20023;-66
2023/11/02 11:33:44;;;;;;;1.20;0.10;;;;;;;13.58;100.00;99150.19;5088395;28;20032;-66
2023/11/02 11:36:30;;;;;;;0.68;0.00;;;;;;;13.56;100.00;99158.22;5089099;28;20549;-66